createdAt,value
2019-04-23T00:01:03.005Z,72.20
2019-04-23T00:02:58.899Z,72.60
2019-04-23T00:05:01.802Z,72.70
2019-04-23T00:07:15.919Z,73.00
2019-04-23T00:09:23.919Z,73.90
2019-04-23T00:11:26.114Z,74.10
2019-04-23T00:13:32.666Z,74.50
2019-04-23T00:16:00.400Z,74.70
2019-04-23T00:17:55.783Z,74.90
2019-04-23T00:20:03.836Z,75.30
2019-04-23T00:22:13.364Z,75.60
2019-04-23T00:24:38.357Z,75.90
2019-04-23T00:28:35.421Z,76.90
2019-04-23T00:30:44.047Z,77.10
2019-04-23T00:32:39.244Z,77.20
2019-04-23T00:34:49.608Z,77.40
2019-04-23T00:36:51.421Z,77.30
2019-04-23T00:38:54.047Z,76.80
2019-04-23T00:41:02.763Z,76.80
2019-04-23T00:43:13.487Z,76.60
2019-04-23T00:45:08.283Z,76.90
2019-04-23T00:47:22.241Z,76.70
2019-04-23T00:49:25.292Z,76.50
2019-04-23T00:51:32.955Z,76.20
2019-04-23T00:53:32.760Z,75.70
2019-04-23T00:55:44.862Z,75.70
2019-04-23T00:57:47.098Z,76.00
2019-04-23T01:00:05.136Z,76.40
2019-04-23T01:01:56.601Z,75.60
2019-04-23T01:04:04.818Z,75.60
2019-04-23T01:06:07.754Z,75.70
2019-04-23T01:08:13.007Z,75.80
2019-04-23T01:12:44.975Z,75.90
2019-04-23T01:14:34.670Z,75.80
2019-04-23T01:16:37.948Z,75.90
2019-04-23T01:18:51.625Z,76.10
2019-04-23T01:20:54.719Z,76.40
2019-04-23T01:22:52.952Z,76.30
2019-04-23T01:25:13.908Z,76.50
2019-04-23T01:27:44.572Z,76.90
2019-04-23T01:29:42.862Z,77.20
2019-04-23T01:31:51.992Z,77.20
2019-04-23T01:33:59.487Z,77.20
2019-04-23T01:36:22.921Z,77.60
2019-04-23T01:38:07.755Z,77.70
2019-04-23T01:42:22.788Z,78.10
2019-04-23T01:44:34.171Z,78.30
2019-04-23T01:46:29.175Z,78.20
2019-04-23T01:48:39.279Z,78.40
2019-04-23T01:50:43.782Z,78.40
2019-04-23T01:54:59.108Z,79.80
2019-04-23T01:56:58.105Z,79.20
2019-04-23T01:59:05.097Z,79.40
2019-04-23T02:01:11.582Z,79.40
2019-04-23T02:03:15.262Z,79.70
2019-04-23T02:07:29.663Z,80.00
2019-04-23T02:09:36.076Z,80.20
2019-04-23T02:11:42.171Z,80.20
2019-04-23T02:15:47.433Z,80.50
2019-04-23T02:17:58.607Z,80.80
2019-04-23T02:20:08.988Z,80.60
2019-04-23T02:22:30.927Z,80.70
2019-04-23T02:24:35.985Z,81.20
2019-04-23T02:26:42.163Z,81.10
2019-04-23T02:28:46.337Z,81.20
2019-04-23T02:31:18.719Z,81.40
2019-04-23T02:33:10.933Z,81.50
2019-04-23T02:35:27.577Z,81.50
2019-04-23T02:37:15.216Z,81.70
2019-04-23T02:39:11.624Z,81.90
2019-04-23T02:41:29.634Z,82.10
2019-04-23T02:45:39.926Z,82.40
2019-04-23T02:47:43.464Z,82.50
2019-04-23T02:52:03.979Z,82.60
2019-04-23T02:54:12.741Z,82.80
2019-04-23T02:58:12.732Z,82.80
2019-04-23T03:02:37.260Z,82.90
2019-04-23T03:06:36.237Z,82.70
2019-04-23T03:08:45.638Z,82.80
2019-04-23T03:10:53.366Z,82.30
2019-04-23T03:12:50.936Z,82.10
2019-04-23T03:14:58.863Z,82.00
2019-04-23T03:19:11.231Z,82.00
2019-04-23T03:23:34.483Z,82.40
2019-04-23T03:25:38.224Z,82.20
2019-04-23T03:38:18.867Z,82.30
2019-04-23T03:40:19.255Z,82.30
2019-04-23T03:42:17.728Z,82.40
2019-04-23T03:44:35.552Z,82.50
2019-04-23T03:46:30.389Z,82.60
2019-04-23T03:57:13.423Z,79.70
2019-04-23T03:59:27.104Z,78.50
2019-04-23T04:01:19.736Z,77.80
2019-04-23T04:05:31.230Z,77.00
2019-04-23T04:09:46.335Z,75.10
2019-04-23T04:11:44.962Z,73.90
2019-04-23T04:16:05.150Z,72.50
2019-04-23T04:22:16.345Z,70.50
2019-04-23T04:26:21.095Z,69.00
2019-04-23T04:30:45.310Z,69.20
2019-04-23T04:32:42.908Z,68.70
2019-04-23T04:37:27.033Z,67.50
2019-04-23T04:38:56.726Z,66.80
2019-04-23T04:45:14.156Z,64.60
2019-04-23T04:47:09.958Z,64.30
2019-04-23T04:49:23.297Z,64.30
2019-04-23T04:53:46.806Z,62.60
2019-04-23T04:55:41.742Z,62.70
2019-04-23T04:59:57.629Z,62.40
2019-04-23T05:03:43.706Z,60.40
2019-04-23T05:06:18.279Z,60.30
2019-04-23T05:08:13.898Z,59.90
2019-04-23T05:14:33.553Z,59.80
2019-04-23T05:16:27.544Z,59.80
2019-04-23T05:18:38.628Z,59.70
2019-04-23T05:20:42.968Z,60.20
2019-04-23T05:22:59.839Z,61.10
2019-04-23T05:24:51.038Z,64.30
2019-04-23T05:26:58.448Z,67.00
2019-04-23T05:31:09.842Z,73.40
2019-04-23T05:33:18.517Z,72.10
2019-04-23T05:37:39.305Z,68.00
2019-04-23T05:41:50.041Z,63.30
2019-04-23T05:43:41.686Z,61.70
2019-04-23T05:45:46.506Z,61.20
2019-04-23T05:47:58.653Z,59.30
2019-04-23T05:49:58.965Z,59.90
2019-04-23T05:51:58.912Z,60.40
2019-04-23T05:56:13.288Z,58.50
2019-04-23T05:58:22.096Z,58.50
2019-04-23T06:02:33.752Z,57.40
2019-04-23T06:04:35.821Z,58.90
2019-04-23T06:08:56.387Z,58.40
2019-04-23T06:11:05.642Z,58.10
2019-04-23T06:13:09.937Z,59.30
2019-04-23T06:15:18.045Z,58.70
2019-04-23T06:17:21.078Z,59.00
2019-04-23T06:19:24.642Z,60.20
2019-04-23T06:21:52.383Z,60.40
2019-04-23T06:28:06.629Z,59.40
2019-04-23T06:30:23.903Z,57.80
2019-04-23T06:32:25.968Z,59.50
2019-04-23T06:34:31.147Z,59.50
2019-04-23T06:36:34.359Z,59.40
2019-04-23T06:40:48.822Z,59.40
2019-04-23T06:43:05.394Z,60.20
2019-04-23T06:45:10.454Z,59.60
2019-04-23T06:47:16.624Z,59.10
2019-04-23T06:49:24.688Z,57.50
2019-04-23T06:51:40.130Z,58.00
2019-04-23T06:53:30.631Z,59.60
2019-04-23T06:55:42.107Z,61.00
2019-04-23T06:57:48.080Z,61.10
2019-04-23T06:59:48.586Z,60.50
2019-04-23T07:04:05.650Z,59.20
2019-04-23T07:08:22.437Z,59.80
2019-04-23T07:12:41.379Z,61.70
2019-04-23T07:14:38.053Z,59.70
2019-04-23T07:18:43.498Z,59.00
2019-04-23T07:20:51.453Z,60.00
2019-04-23T07:23:01.274Z,60.20
2019-04-23T07:25:00.342Z,59.70
2019-04-23T07:27:06.537Z,60.00
2019-04-23T07:29:07.448Z,62.00
2019-04-23T07:31:22.866Z,61.30
2019-04-23T07:33:31.128Z,61.50
2019-04-23T07:35:21.206Z,60.70
2019-04-23T07:37:59.155Z,60.80
2019-04-23T07:40:22.927Z,61.50
2019-04-23T07:42:09.341Z,64.50
2019-04-23T07:44:24.933Z,65.00
2019-04-23T07:46:32.632Z,64.60
2019-04-23T07:48:29.138Z,63.50
2019-04-23T07:50:46.227Z,63.40
2019-04-23T07:52:58.865Z,63.40
2019-04-23T07:55:02.188Z,63.00
2019-04-23T07:57:10.700Z,61.90
2019-04-23T07:59:14.289Z,60.80
2019-04-23T08:01:09.676Z,59.30
2019-04-23T08:07:32.032Z,62.50
2019-04-23T08:09:43.719Z,63.10
2019-04-23T08:11:40.674Z,63.10
2019-04-23T08:13:53.386Z,63.30
2019-04-23T08:15:57.422Z,63.20
2019-04-23T08:18:03.215Z,65.00
2019-04-23T08:20:07.381Z,65.50
2019-04-23T08:22:20.124Z,65.00
2019-04-23T08:24:46.553Z,64.50
2019-04-23T08:31:15.231Z,64.90
2019-04-23T08:33:19.180Z,63.40
2019-04-23T08:35:23.250Z,62.60
2019-04-23T08:39:38.351Z,63.40
2019-04-23T08:41:57.810Z,62.20
2019-04-23T08:44:11.291Z,60.50
2019-04-23T08:46:33.168Z,61.40
2019-04-23T08:52:43.021Z,61.10
2019-04-23T08:55:01.566Z,62.80
2019-04-23T08:56:55.262Z,63.20
2019-04-23T08:58:59.317Z,63.50
2019-04-23T09:01:07.365Z,64.70
2019-04-23T09:03:25.230Z,64.20
2019-04-23T09:05:14.746Z,65.30
2019-04-23T09:09:27.417Z,66.30
2019-04-23T09:11:41.653Z,67.10
2019-04-23T09:13:53.696Z,63.90
2019-04-23T09:15:49.770Z,63.70
2019-04-23T09:20:15.160Z,65.80
2019-04-23T09:22:08.669Z,65.80
2019-04-23T09:24:03.375Z,65.10
2019-04-23T09:26:06.191Z,65.00
2019-04-23T09:28:27.645Z,66.30
2019-04-23T09:34:49.848Z,67.10
2019-04-23T09:36:53.869Z,66.40
2019-04-23T09:38:58.523Z,69.10
2019-04-23T09:41:16.703Z,67.70
2019-04-23T09:45:28.102Z,68.10
2019-04-23T09:47:53.732Z,69.00
2019-04-23T09:49:57.336Z,68.80
2019-04-23T09:52:00.757Z,67.80
2019-04-23T09:54:09.825Z,68.50
2019-04-23T09:56:10.243Z,68.00
2019-04-23T09:58:12.994Z,67.70
2019-04-23T10:00:26.891Z,65.90
2019-04-23T10:02:21.803Z,66.20
2019-04-23T10:04:20.901Z,67.20
2019-04-23T10:06:19.029Z,65.00
2019-04-23T10:08:24.217Z,64.20
2019-04-23T10:10:22.897Z,62.60
2019-04-23T10:12:28.034Z,63.60
2019-04-23T10:14:32.471Z,60.90
2019-04-23T10:16:36.930Z,61.90
2019-04-23T10:18:41.485Z,62.30
2019-04-23T10:20:46.709Z,61.00
2019-04-23T10:22:50.597Z,62.30
2019-04-23T10:24:55.391Z,62.60
2019-04-23T10:27:01.993Z,60.90
2019-04-23T10:29:07.759Z,61.30
2019-04-23T10:31:12.603Z,60.90
2019-04-23T10:33:16.557Z,60.30
2019-04-23T10:35:30.408Z,61.20
2019-04-23T10:37:39.426Z,60.70
2019-04-23T10:39:37.149Z,61.70
2019-04-23T10:41:40.595Z,60.20
2019-04-23T10:43:48.307Z,60.40
2019-04-23T10:46:15.416Z,61.70
2019-04-23T10:48:51.076Z,59.90
2019-04-23T10:51:04.307Z,59.70
2019-04-23T10:53:26.147Z,61.00
2019-04-23T10:55:29.941Z,60.80
2019-04-23T10:57:22.832Z,59.90
2019-04-23T10:59:38.855Z,59.50
2019-04-23T11:01:44.953Z,59.00
2019-04-23T11:05:59.013Z,58.20
2019-04-23T11:08:06.934Z,58.10
2019-04-23T11:10:11.226Z,59.20
2019-04-23T11:12:24.288Z,58.40
2019-04-23T11:14:24.848Z,58.90
2019-04-23T11:18:46.824Z,58.60
2019-04-23T11:20:41.552Z,58.10
2019-04-23T11:22:45.369Z,58.20
2019-04-23T11:24:59.980Z,58.60
2019-04-23T11:26:57.477Z,59.20
2019-04-23T11:29:04.460Z,59.60
2019-04-23T11:31:19.115Z,61.00
2019-04-23T11:33:16.133Z,61.20
2019-04-23T11:37:41.208Z,59.70
2019-04-23T11:39:43.211Z,60.00
2019-04-23T11:41:57.857Z,59.00
2019-04-23T11:44:02.319Z,59.00
2019-04-23T11:50:13.947Z,58.90
2019-04-23T11:52:19.362Z,59.60
2019-04-23T11:54:17.808Z,59.80
2019-04-23T11:56:36.673Z,60.70
2019-04-23T11:58:32.110Z,61.00
2019-04-23T12:01:27.438Z,60.00
2019-04-23T12:05:11.745Z,57.90
2019-04-23T12:09:43.105Z,56.40
2019-04-23T12:14:04.303Z,57.60
2019-04-23T12:16:00.751Z,57.90
2019-04-23T12:18:10.912Z,57.90
2019-04-23T12:22:26.976Z,58.20
2019-04-23T12:24:56.817Z,59.10
2019-04-23T12:26:35.414Z,57.70
2019-04-23T12:28:44.071Z,57.60
2019-04-23T12:30:45.311Z,57.90
2019-04-23T12:37:09.538Z,57.90
2019-04-23T12:39:15.372Z,57.50
2019-04-23T12:41:12.840Z,57.20
2019-04-23T12:43:20.681Z,57.20
2019-04-23T12:45:33.328Z,55.20
2019-04-23T12:51:47.138Z,56.20
2019-04-23T12:53:52.405Z,56.40
2019-04-23T12:55:53.192Z,56.80
2019-04-23T12:58:03.820Z,57.00
2019-04-23T13:02:27.430Z,56.80
2019-04-23T13:04:24.978Z,56.70
2019-04-23T13:06:20.917Z,57.80
2019-04-23T13:10:35.545Z,57.20
2019-04-23T13:17:27.073Z,56.30
2019-04-23T13:19:06.423Z,56.10
2019-04-23T13:21:13.343Z,55.70
2019-04-23T13:23:18.339Z,54.60
2019-04-23T13:27:59.148Z,55.50
2019-04-23T13:29:56.767Z,55.00
2019-04-23T13:31:58.995Z,55.30
2019-04-23T13:34:08.491Z,55.50
2019-04-23T13:36:19.157Z,56.10
2019-04-23T13:38:27.518Z,56.80
2019-04-23T13:40:32.151Z,56.80
2019-04-23T13:42:40.986Z,56.60
2019-04-23T13:44:42.121Z,56.90
2019-04-23T13:46:40.968Z,57.00
2019-04-23T13:48:42.068Z,57.90
2019-04-23T13:50:59.935Z,57.90
2019-04-23T13:53:29.018Z,57.80
2019-04-23T14:03:48.274Z,57.60
2019-04-23T14:06:18.088Z,57.80
2019-04-23T14:08:41.600Z,58.10
2019-04-23T14:10:29.207Z,58.20
2019-04-23T14:12:32.010Z,58.90
2019-04-23T14:14:42.138Z,59.30
2019-04-23T14:20:53.045Z,59.10
2019-04-23T14:23:08.596Z,59.60
2019-04-23T14:27:17.909Z,60.20
2019-04-23T14:29:13.049Z,59.70
2019-04-23T14:31:17.277Z,59.60
2019-04-23T14:33:37.606Z,59.40
2019-04-23T14:35:45.901Z,59.40
2019-04-23T14:38:09.198Z,59.50
2019-04-23T14:41:53.724Z,59.30
2019-04-23T14:48:34.217Z,57.80
2019-04-23T14:50:32.268Z,57.80
2019-04-23T14:55:19.882Z,57.30
2019-04-23T14:56:56.918Z,58.00
2019-04-23T15:01:17.732Z,57.80
2019-04-23T15:03:15.995Z,57.50
2019-04-23T15:05:17.390Z,58.00
2019-04-23T15:07:24.208Z,58.20
2019-04-23T15:13:43.181Z,56.30
2019-04-23T15:15:44.097Z,57.10
2019-04-23T15:17:49.343Z,56.60
2019-04-23T15:19:55.390Z,56.40
2019-04-23T15:22:12.519Z,56.70
2019-04-23T15:24:13.922Z,56.50
2019-04-23T15:27:08.535Z,56.70
2019-04-23T15:28:07.604Z,56.70
2019-04-23T15:30:15.807Z,56.70
2019-04-23T15:32:37.131Z,56.40
2019-04-23T15:34:30.552Z,56.90
2019-04-23T15:36:52.374Z,56.70
2019-04-23T15:38:56.183Z,56.50
2019-04-23T15:40:52.592Z,56.70
2019-04-23T15:43:04.699Z,56.00
2019-04-23T15:45:08.855Z,56.70
2019-04-23T15:47:14.572Z,57.00
2019-04-23T15:49:19.876Z,57.30
2019-04-23T15:51:28.749Z,57.60
2019-04-23T15:53:17.617Z,57.80
2019-04-23T15:55:27.591Z,58.50
2019-04-23T16:01:40.603Z,57.30
2019-04-23T16:03:30.022Z,57.90
2019-04-23T16:05:35.032Z,57.90
2019-04-23T16:07:54.908Z,58.20
2019-04-23T16:10:15.532Z,58.40
2019-04-23T16:12:11.416Z,58.60
2019-04-23T16:18:59.131Z,58.20
2019-04-23T16:21:10.511Z,58.10
2019-04-23T16:23:04.689Z,58.70
2019-04-23T16:27:16.225Z,59.20
2019-04-23T16:31:35.695Z,59.60
2019-04-23T16:33:39.542Z,59.20
2019-04-23T16:35:58.589Z,59.40
2019-04-23T16:38:10.576Z,58.90
2019-04-23T16:40:10.396Z,58.90
2019-04-23T16:42:09.982Z,58.90
2019-04-23T16:44:13.818Z,59.20
2019-04-23T16:46:21.466Z,59.60
2019-04-23T16:48:35.089Z,60.00
2019-04-23T16:52:36.735Z,59.70
2019-04-23T16:54:53.532Z,60.20
2019-04-23T16:57:01.020Z,60.50
2019-04-23T16:59:00.125Z,61.40
2019-04-23T17:01:03.821Z,61.50
2019-04-23T17:03:14.430Z,61.10
2019-04-23T17:05:11.033Z,62.00
2019-04-23T17:07:06.662Z,62.70
2019-04-23T17:09:19.977Z,63.20
2019-04-23T17:13:30.086Z,64.10
2019-04-23T17:15:46.635Z,64.50
2019-04-23T17:17:40.872Z,64.80
2019-04-23T17:19:50.529Z,65.10
2019-04-23T17:21:59.996Z,65.30
2019-04-23T17:24:08.004Z,65.70
2019-04-23T17:30:26.303Z,67.20
2019-04-23T17:32:28.300Z,67.40
2019-04-23T17:36:55.579Z,68.40
2019-04-23T17:41:13.803Z,69.10
2019-04-23T17:43:05.919Z,69.60
2019-04-23T17:45:31.293Z,70.00
2019-04-23T17:47:35.227Z,70.70
2019-04-23T17:49:45.763Z,70.90
2019-04-23T17:51:41.708Z,71.40
2019-04-23T17:56:10.390Z,72.00
2019-04-23T17:58:06.341Z,72.40
2019-04-23T18:02:49.690Z,72.70
2019-04-23T18:04:20.667Z,72.70
2019-04-23T18:08:27.729Z,73.10
2019-04-23T18:11:01.543Z,73.40
2019-04-23T18:12:53.789Z,73.50
2019-04-23T18:14:43.957Z,73.50
2019-04-23T18:16:57.209Z,73.80
2019-04-23T18:21:29.412Z,74.10
2019-04-23T18:23:23.645Z,74.50
2019-04-23T18:25:43.299Z,74.70
2019-04-23T18:27:52.891Z,75.00
2019-04-23T18:30:04.616Z,75.30
2019-04-23T18:32:13.022Z,75.70
2019-04-23T18:34:12.542Z,76.10
2019-04-23T18:36:21.707Z,76.50
2019-04-23T18:38:46.379Z,77.10
2019-04-23T18:40:42.005Z,77.20
2019-04-23T18:44:43.534Z,77.70
2019-04-23T18:46:49.075Z,78.00
2019-04-23T18:49:10.992Z,78.40
2019-04-23T18:53:16.349Z,78.80
2019-04-23T18:55:24.333Z,79.00
2019-04-23T18:57:38.339Z,79.20
2019-04-23T18:59:39.295Z,79.30
2019-04-23T19:01:36.708Z,79.50
2019-04-23T19:03:55.589Z,79.70
2019-04-23T19:06:01.073Z,79.70
2019-04-23T19:08:21.344Z,79.80
2019-04-23T19:12:48.737Z,80.10
2019-04-23T19:18:59.223Z,80.40
2019-04-23T19:23:25.945Z,80.50
2019-04-23T19:25:14.503Z,80.50
2019-04-23T19:27:37.178Z,80.50
2019-04-23T19:29:39.600Z,80.50
2019-04-23T19:40:33.739Z,79.70
2019-04-23T19:42:36.549Z,79.80
2019-04-23T19:44:38.784Z,79.70
2019-04-23T19:51:11.314Z,79.70
2019-04-23T19:53:22.611Z,79.20
2019-04-23T19:55:16.959Z,79.10
2019-04-23T19:57:19.285Z,79.10
2019-04-23T19:59:25.612Z,79.20
2019-04-23T20:01:21.086Z,78.80
2019-04-23T20:03:37.739Z,78.70
2019-04-23T20:05:41.267Z,78.00
2019-04-23T20:07:50.913Z,77.20
2019-04-23T20:11:59.233Z,75.80
2019-04-23T20:18:07.263Z,73.00
2019-04-23T20:20:12.447Z,72.50
2019-04-23T20:22:29.138Z,72.00
2019-04-23T20:24:39.695Z,71.50
2019-04-23T20:26:23.381Z,71.70
2019-04-23T20:29:10.884Z,71.40
2019-04-23T20:33:48.441Z,71.40
2019-04-23T20:35:16.447Z,70.80
2019-04-23T20:37:25.455Z,70.30
2019-04-23T20:39:33.221Z,70.40
2019-04-23T20:42:07.760Z,70.10
2019-04-23T20:44:01.350Z,70.10
2019-04-23T20:46:10.309Z,70.50
2019-04-23T20:48:08.776Z,70.20
2019-04-23T20:49:58.505Z,70.20
2019-04-23T20:52:10.352Z,70.20
2019-04-23T20:54:35.715Z,70.30
2019-04-23T20:56:35.996Z,70.30
2019-04-23T20:58:44.122Z,70.70
2019-04-23T21:00:42.915Z,70.70
2019-04-23T21:05:11.330Z,71.30
2019-04-23T21:07:09.189Z,71.30
2019-04-23T21:09:27.917Z,71.70
2019-04-23T21:11:12.628Z,71.80
2019-04-23T21:13:41.262Z,71.50
2019-04-23T21:15:35.139Z,71.60
2019-04-23T21:17:54.641Z,72.10
2019-04-23T21:19:54.915Z,72.40
2019-04-23T21:22:09.860Z,72.40
2019-04-23T21:24:03.939Z,72.10
2019-04-23T21:26:02.415Z,72.40
2019-04-23T21:28:42.953Z,72.80
2019-04-23T21:32:59.082Z,73.40
2019-04-23T21:35:05.651Z,73.70
2019-04-23T21:37:11.060Z,74.20
2019-04-23T21:39:24.562Z,74.10
2019-04-23T21:44:05.438Z,74.80
2019-04-23T21:48:00.540Z,75.40
2019-04-23T21:52:09.191Z,75.00
2019-04-23T21:54:06.085Z,75.00
2019-04-23T21:58:29.687Z,76.00
2019-04-23T22:00:36.723Z,76.10
2019-04-23T22:02:49.533Z,77.10
2019-04-23T22:04:44.979Z,76.30
2019-04-23T22:09:00.920Z,76.80
2019-04-23T22:11:24.989Z,76.90
2019-04-23T22:15:13.003Z,77.10
2019-04-23T22:17:16.546Z,76.50
2019-04-23T22:19:20.124Z,76.70
2019-04-23T22:21:54.573Z,76.40
2019-04-23T22:23:46.797Z,76.40
2019-04-23T22:25:48.900Z,76.60
2019-04-23T22:27:52.914Z,76.40
2019-04-23T22:29:54.043Z,76.40
2019-04-23T22:31:51.167Z,76.80
2019-04-23T22:36:09.772Z,76.20
2019-04-23T22:38:30.541Z,76.30
2019-04-23T22:40:15.132Z,76.40
2019-04-23T22:42:41.298Z,76.30
2019-04-23T22:44:31.933Z,76.50
2019-04-23T22:46:50.374Z,76.70
2019-04-23T22:48:57.617Z,76.90
2019-04-23T22:51:07.059Z,77.30
2019-04-23T23:03:37.703Z,78.20
2019-04-23T23:05:52.226Z,78.60
2019-04-23T23:07:56.228Z,78.90
2019-04-23T23:09:50.948Z,79.30
2019-04-23T23:11:54.612Z,79.00
2019-04-23T23:14:09.917Z,79.00
2019-04-23T23:16:16.717Z,78.80
2019-04-23T23:20:32.606Z,79.00
2019-04-23T23:22:20.109Z,78.60
2019-04-23T23:24:27.632Z,79.10
2019-04-23T23:26:35.942Z,78.90
2019-04-23T23:30:57.977Z,79.00
2019-04-23T23:35:12.579Z,78.60
2019-04-23T23:39:22.069Z,79.30
2019-04-23T23:41:28.678Z,78.30
2019-04-23T23:43:24.168Z,78.00
2019-04-23T23:45:25.369Z,78.20
2019-04-23T23:49:36.280Z,77.60
2019-04-23T23:51:40.060Z,77.60
2019-04-23T23:54:02.996Z,77.70
2019-04-23T23:55:58.732Z,77.80
2019-04-23T23:58:07.335Z,77.70
